English বাংলা অনুসন্ধান

 সারাদেশের আবহাওয়া শুষ্ক থাকতে পারে ।

ট্যাফ

TAF VGHS 042300Z 0500/0606 30005KT 2000 BR NSC TEMPO 0500/0504 00000KT 1500 BR NSC BECMG 0506/0508 02006KT 3500 HZ NSC BECMG 0510/0512 00000KT 4000 HZ NSC BECMG 0522/0524 00000KT 2500 BR NSC=

TAF VGEG 042300Z 0500/0606 00000KT 0800 FG SCT012 BECMG 0503/0505 09010KT 4500 HZ SCT018 BECMG 0510/0512 35010KT 4500 HZ SCT016 TEMPO 0520/0602 00000KT 1200 BR SCT013 BECMG 0602/0604 09010KT 4500 HZ SCT018=

TAF VGSY 041000Z 0412/0518 28005KT 4000HZ FEW015 BECMG 0418/0420 00000KT 3000HZ NSC BECMG 0423/0501 00000KT 2500BR NSC BECMG 0503/0505 09005KT 3500HZ FEW015=